Time;durP1;ratioP1;P1;durP2;ratioP2;P2;SDS_P1;SDS_P2;PMS_P1;PMS_P2;Temp;Humidity;BMP_temperature;BMP_pressure;BME280_temperature;BME280_humidity;BME280_pressure;Samples;Min_cycle;Max_cycle;Signal;HPM_P1;HPM_P2
2022/06/11 00:00:50;;;;;;;8.57;4.78;;;17.30;99.90;;;;;;5053930;28;20073;-88
2022/06/11 00:03:16;;;;;;;6.43;4.32;;;17.20;99.90;;;;;;5035901;28;20040;-87
2022/06/11 00:05:41;;;;;;;9.35;4.68;;;17.20;99.90;;;;;;5035862;28;20021;-87
2022/06/11 00:08:08;;;;;;;7.57;4.07;;;17.20;99.90;;;;;;5035727;28;20053;-88
2022/06/11 00:10:33;;;;;;;8.90;4.28;;;17.10;99.90;;;;;;5035874;28;20028;-88
2022/06/11 00:12:59;;;;;;;6.30;3.67;;;17.10;99.90;;;;;;5035620;28;20037;-87
2022/06/11 00:15:25;;;;;;;7.10;3.80;;;17.10;99.90;;;;;;5035795;28;20713;-87
2022/06/11 00:17:52;;;;;;;7.53;4.15;;;17.00;99.90;;;;;;5035456;28;20512;-87
2022/06/11 00:20:18;;;;;;;7.30;3.90;;;17.00;99.90;;;;;;5035614;28;20397;-87
2022/06/11 00:22:44;;;;;;;7.53;4.97;;;16.90;99.90;;;;;;5035811;28;20112;-87
2022/06/11 00:25:10;;;;;;;9.77;5.13;;;16.80;99.90;;;;;;5035836;28;20049;-87
2022/06/11 00:27:37;;;;;;;7.10;5.10;;;16.80;99.90;;;;;;5035463;28;20108;-86
2022/06/11 00:30:05;;;;;;;9.70;6.05;;;16.70;99.90;;;;;;5035931;28;20052;-87
2022/06/11 00:32:31;;;;;;;9.25;5.30;;;16.60;99.90;;;;;;5039388;28;20029;-87
2022/06/11 00:35:01;;;;;;;11.68;6.72;;;16.50;99.90;;;;;;5039322;28;20127;-86
2022/06/11 00:37:26;;;;;;;10.63;6.72;;;16.50;99.90;;;;;;5039671;28;20021;-86
2022/06/11 00:39:52;;;;;;;11.07;6.95;;;16.40;99.90;;;;;;5039509;28;20396;-86
2022/06/11 00:42:22;;;;;;;9.55;6.85;;;16.40;99.90;;;;;;5039114;28;20124;-87
2022/06/11 00:44:48;;;;;;;9.85;6.25;;;16.30;99.90;;;;;;5057261;28;20025;-86
2022/06/11 00:47:22;;;;;;;8.90;7.18;;;16.30;99.90;;;;;;5056923;28;20097;-86
2022/06/11 00:49:54;;;;;;;13.45;7.63;;;16.20;99.90;;;;;;5056473;28;20029;-87
2022/06/11 00:52:37;;;;;;;11.63;7.53;;;16.20;99.90;;;;;;5056503;28;20069;-87
2022/06/11 00:55:14;;;;;;;10.75;7.15;;;16.00;99.90;;;;;;5038580;28;20087;-87
2022/06/11 00:57:44;;;;;;;14.93;7.18;;;16.00;99.90;;;;;;5056683;28;20078;-86
2022/06/11 01:00:22;;;;;;;11.50;7.03;;;16.00;99.90;;;;;;5056670;28;20063;-87
2022/06/11 01:02:48;;;;;;;10.23;7.00;;;15.90;99.90;;;;;;5056693;28;20032;-86
2022/06/11 01:05:23;;;;;;;10.02;6.63;;;15.90;99.90;;;;;;5038593;28;20033;-87
2022/06/11 01:08:00;;;;;;;10.68;7.07;;;15.90;99.90;;;;;;5056444;28;20021;-86
2022/06/11 01:10:43;;;;;;;9.43;6.38;;;15.80;99.90;;;;;;5038744;28;20025;-87
2022/06/11 01:13:40;;;;;;;9.30;5.97;;;15.80;99.90;;;;;;5056351;28;20052;-87
2022/06/11 01:16:34;;;;;;;12.05;6.35;;;15.80;99.90;;;;;;5056323;28;20036;-86
2022/06/11 01:19:23;;;;;;;9.68;6.63;;;15.80;99.90;;;;;;5009184;28;20029;-87
2022/06/11 01:21:57;;;;;;;9.23;6.53;;;15.70;99.90;;;;;;5038518;28;20043;-87
2022/06/11 01:24:52;;;;;;;10.20;5.90;;;15.70;99.90;;;;;;5056100;28;20040;-86
2022/06/11 01:27:54;;;;;;;9.13;6.10;;;15.70;99.90;;;;;;5056094;28;20480;-86
2022/06/11 01:30:19;;;;;;;11.73;5.90;;;15.60;99.90;;;;;;5055866;28;20075;-87
2022/06/11 01:33:03;;;;;;;7.88;5.72;;;15.50;99.90;;;;;;5055943;28;20044;-86
2022/06/11 01:35:53;;;;;;;8.43;6.20;;;15.50;99.90;;;;;;5055931;28;20500;-87
2022/06/11 01:38:33;;;;;;;14.75;6.05;;;15.50;99.90;;;;;;5055777;28;20021;-87
2022/06/11 01:41:39;;;;;;;8.07;5.35;;;15.40;99.90;;;;;;5037566;28;20025;-87
2022/06/11 01:44:09;;;;;;;9.82;5.50;;;15.40;99.90;;;;;;5029973;28;20032;-86
2022/06/11 01:46:38;;;;;;;8.23;5.80;;;15.30;99.90;;;;;;5055761;28;20020;-86
2022/06/11 01:49:21;;;;;;;10.73;6.22;;;15.20;99.90;;;;;;5055477;28;20053;-86
2022/06/11 01:52:24;;;;;;;10.80;5.85;;;15.20;99.90;;;;;;5038180;28;20036;-87
2022/06/11 01:55:11;;;;;;;9.57;6.43;;;15.20;99.90;;;;;;5056021;28;20025;-86
2022/06/11 01:57:53;;;;;;;8.23;6.15;;;15.10;99.90;;;;;;5055556;28;20465;-87
2022/06/11 02:00:24;;;;;;;9.95;6.10;;;15.00;99.90;;;;;;5055228;28;20086;-87
2022/06/11 02:02:50;;;;;;;13.05;5.75;;;15.00;99.90;;;;;;5037977;28;20100;-86
2022/06/11 02:05:39;;;;;;;9.98;5.95;;;15.00;99.90;;;;;;5037412;28;20106;-86
2022/06/11 02:08:39;;;;;;;9.15;6.25;;;15.00;99.90;;;;;;5055218;28;20076;-87
2022/06/11 02:11:31;;;;;;;10.30;6.15;;;14.90;99.90;;;;;;5037513;28;20032;-86
2022/06/11 02:14:21;;;;;;;12.45;6.25;;;14.90;99.90;;;;;;5037272;28;20509;-87
2022/06/11 02:16:56;;;;;;;11.80;5.97;;;14.90;99.90;;;;;;5039417;28;20026;-87
2022/06/11 02:19:27;;;;;;;10.75;6.25;;;14.90;99.90;;;;;;5017533;28;20036;-86
2022/06/11 02:21:59;;;;;;;9.52;6.45;;;14.80;99.90;;;;;;5029595;28;20055;-87
2022/06/11 02:25:07;;;;;;;7.53;6.30;;;14.80;99.90;;;;;;5037363;28;20082;-86
2022/06/11 02:27:36;;;;;;;11.88;6.35;;;14.70;99.90;;;;;;5026663;28;20025;-87
2022/06/11 02:30:06;;;;;;;9.30;5.78;;;14.70;99.90;;;;;;5037116;28;20024;-87
2022/06/11 02:32:32;;;;;;;9.55;5.68;;;14.70;99.90;;;;;;5037114;28;20044;-87
2022/06/11 02:35:03;;;;;;;7.32;5.47;;;14.70;99.90;;;;;;5037015;28;20040;-86
2022/06/11 02:37:45;;;;;;;8.63;5.68;;;14.70;99.90;;;;;;5037044;28;20074;-86
2022/06/11 02:40:22;;;;;;;7.37;5.10;;;14.60;99.90;;;;;;5037147;28;20025;-87
2022/06/11 02:42:48;;;;;;;6.55;5.20;;;14.60;99.90;;;;;;5036908;28;20032;-86
2022/06/11 02:45:14;;;;;;;7.85;5.18;;;14.60;99.90;;;;;;5036983;28;20476;-86
2022/06/11 02:47:42;;;;;;;12.27;6.00;;;14.60;99.90;;;;;;5054462;28;20021;-86
2022/06/11 02:50:08;;;;;;;8.18;5.72;;;14.60;99.90;;;;;;5036796;28;20021;-86
2022/06/11 02:52:34;;;;;;;8.15;5.50;;;14.60;99.90;;;;;;5053916;28;20037;-86
2022/06/11 02:55:00;;;;;;;10.07;5.47;;;14.70;99.90;;;;;;5036207;28;20116;-86
2022/06/11 02:57:29;;;;;;;8.77;5.80;;;14.60;99.90;;;;;;5036777;28;20028;-86
2022/06/11 02:59:56;;;;;;;6.68;4.65;;;14.70;99.90;;;;;;5036562;28;20024;-86
2022/06/11 03:02:23;;;;;;;7.85;5.03;;;14.60;99.90;;;;;;5036335;28;20039;-86
2022/06/11 03:04:49;;;;;;;6.72;4.65;;;14.60;99.90;;;;;;5036491;28;20021;-87
2022/06/11 03:07:15;;;;;;;8.73;5.22;;;14.70;99.90;;;;;;5036403;28;20074;-86
2022/06/11 03:09:41;;;;;;;8.50;5.82;;;14.70;99.90;;;;;;5036822;28;20111;-86
2022/06/11 03:12:08;;;;;;;9.70;5.55;;;14.70;99.90;;;;;;5036372;28;20036;-86
2022/06/11 03:14:35;;;;;;;8.70;5.82;;;14.70;99.90;;;;;;5028498;28;20014;-86
2022/06/11 03:17:00;;;;;;;10.43;4.40;;;14.70;99.90;;;;;;5016693;28;20388;-87
2022/06/11 03:19:26;;;;;;;6.88;3.85;;;14.70;99.90;;;;;;5016677;28;20104;-86
2022/06/11 03:21:54;;;;;;;8.70;4.03;;;14.70;99.90;;;;;;5016705;28;20025;-87
2022/06/11 03:24:21;;;;;;;6.72;4.20;;;14.70;99.90;;;;;;5033958;28;20545;-87
2022/06/11 03:26:48;;;;;;;6.65;4.07;;;14.70;99.90;;;;;;5016342;28;20057;-87
2022/06/11 03:29:15;;;;;;;7.60;4.20;;;14.80;99.90;;;;;;5016430;28;20017;-86
2022/06/11 03:31:45;;;;;;;7.10;3.90;;;14.80;99.90;;;;;;5016308;28;20500;-86
2022/06/11 03:34:11;;;;;;;6.65;3.92;;;14.80;99.90;;;;;;5016194;28;20037;-87
2022/06/11 03:36:37;;;;;;;6.50;3.70;;;14.80;99.90;;;;;;5016551;28;20037;-87
2022/06/11 03:39:04;;;;;;;8.75;3.35;;;14.80;99.90;;;;;;5016631;28;20164;-87
2022/06/11 03:41:30;;;;;;;5.82;2.65;;;14.80;99.90;;;;;;5016381;28;20025;-87
2022/06/11 03:43:55;;;;;;;5.88;2.90;;;14.80;99.90;;;;;;5016255;28;20087;-85
2022/06/11 03:46:21;;;;;;;3.10;2.22;;;14.80;99.90;;;;;;5015936;28;20057;-86
2022/06/11 03:48:47;;;;;;;10.45;2.30;;;14.80;99.90;;;;;;5016183;28;20124;-87
2022/06/11 03:51:13;;;;;;;10.60;2.45;;;14.90;99.90;;;;;;5016433;28;20021;-86
2022/06/11 03:53:39;;;;;;;7.68;2.33;;;14.90;99.90;;;;;;5016083;28;20034;-88
2022/06/11 03:56:07;;;;;;;4.43;1.60;;;14.90;99.90;;;;;;5033601;28;20059;-86
2022/06/11 03:58:34;;;;;;;6.93;2.10;;;14.90;99.90;;;;;;5015978;28;20036;-86
2022/06/11 04:01:15;;;;;;;5.13;1.42;;;15.00;99.90;;;;;;5033569;28;20031;-86
2022/06/11 04:03:42;;;;;;;3.22;1.40;;;15.00;99.90;;;;;;5033531;28;20029;-86
2022/06/11 04:06:08;;;;;;;7.47;1.45;;;15.00;99.90;;;;;;5037073;28;20033;-86
2022/06/11 04:08:35;;;;;;;8.63;1.42;;;14.90;99.90;;;;;;5037378;28;20470;-86
2022/06/11 04:11:01;;;;;;;5.70;1.15;;;15.00;99.90;;;;;;5020099;28;20135;-86
2022/06/11 04:13:29;;;;;;;5.70;1.25;;;15.00;99.90;;;;;;5019233;28;20037;-86
2022/06/11 04:15:56;;;;;;;6.53;1.30;;;15.00;99.90;;;;;;5037359;28;20532;-86
2022/06/11 04:18:25;;;;;;;8.15;1.20;;;15.00;99.90;;;;;;5036971;28;20100;-86
2022/06/11 04:20:51;;;;;;;6.55;1.45;;;15.00;99.90;;;;;;5037338;28;20109;-86
2022/06/11 04:23:17;;;;;;;7.75;1.60;;;15.10;99.90;;;;;;5019807;28;20090;-86
2022/06/11 04:25:45;;;;;;;8.48;1.13;;;15.10;99.90;;;;;;5037196;28;20499;-86
2022/06/11 04:28:11;;;;;;;5.05;1.10;;;15.10;99.90;;;;;;5019521;28;20071;-85
2022/06/11 04:30:36;;;;;;;3.75;1.10;;;15.10;99.90;;;;;;5036079;28;20565;-86
2022/06/11 04:33:02;;;;;;;6.80;1.10;;;15.10;99.90;;;;;;5019302;28;20124;-86
2022/06/11 04:35:27;;;;;;;8.32;1.40;;;15.10;99.90;;;;;;5016082;28;20050;-87
2022/06/11 04:37:53;;;;;;;8.75;1.90;;;15.20;99.90;;;;;;5032699;28;20455;-87
2022/06/11 04:40:18;;;;;;;9.50;1.77;;;15.20;99.90;;;;;;5016923;28;20052;-86
2022/06/11 04:42:44;;;;;;;7.03;1.55;;;15.20;99.90;;;;;;5017019;28;20497;-86
2022/06/11 04:45:11;;;;;;;7.38;1.20;;;15.30;99.90;;;;;;5017122;28;20029;-87
2022/06/11 04:47:36;;;;;;;6.53;1.08;;;15.30;99.90;;;;;;5016349;28;20096;-86
2022/06/11 04:50:05;;;;;;;10.20;1.90;;;15.30;99.90;;;;;;5016139;28;20018;-87
2022/06/11 04:52:30;;;;;;;7.22;1.42;;;15.40;99.90;;;;;;5015546;28;20076;-87
2022/06/11 04:54:56;;;;;;;5.85;1.25;;;15.60;99.90;;;;;;5016636;28;20053;-86
2022/06/11 04:57:22;;;;;;;7.75;1.17;;;16.00;99.90;;;;;;5016527;28;20038;-86
2022/06/11 04:59:48;;;;;;;6.32;1.13;;;16.30;99.90;;;;;;5016981;28;20109;-86
2022/06/11 05:02:13;;;;;;;6.75;1.25;;;16.70;99.90;;;;;;5016920;28;20061;-86
2022/06/11 05:04:39;;;;;;;6.97;0.98;;;17.00;99.90;;;;;;5015514;28;20021;-86
2022/06/11 05:07:05;;;;;;;6.18;1.02;;;17.40;99.90;;;;;;5016551;28;20084;-86
2022/06/11 05:09:33;;;;;;;4.40;0.75;;;17.60;99.90;;;;;;5015602;28;20025;-87
2022/06/11 05:11:59;;;;;;;10.07;1.20;;;18.00;99.90;;;;;;5015090;28;20034;-86
2022/06/11 05:14:25;;;;;;;6.60;0.73;;;18.30;99.90;;;;;;5015393;28;20088;-86
2022/06/11 05:16:50;;;;;;;6.95;0.90;;;18.50;99.90;;;;;;5014732;28;20126;-86
2022/06/11 05:19:19;;;;;;;6.22;0.68;;;18.40;99.90;;;;;;5015763;28;20120;-87
2022/06/11 05:21:46;;;;;;;5.03;0.75;;;18.30;99.90;;;;;;5015528;28;20033;-86
2022/06/11 05:24:12;;;;;;;6.85;0.85;;;18.20;99.90;;;;;;5015304;28;20021;-86
2022/06/11 05:26:43;;;;;;;8.75;1.10;;;18.00;99.90;;;;;;5014946;28;20497;-86
2022/06/11 05:29:16;;;;;;;10.00;1.73;;;17.80;99.90;;;;;;5015080;28;20092;-86
2022/06/11 05:31:42;;;;;;;5.78;1.02;;;17.70;99.90;;;;;;5031844;28;20038;-86
2022/06/11 05:34:07;;;;;;;6.68;1.00;;;18.00;99.90;;;;;;5015089;28;20033;-87
2022/06/11 05:36:33;;;;;;;5.80;1.27;;;18.30;99.90;;;;;;5018445;28;20037;-87
2022/06/11 05:38:59;;;;;;;7.90;0.80;;;18.60;99.90;;;;;;5035824;28;20462;-87
2022/06/11 05:41:24;;;;;;;7.63;0.73;;;18.70;99.90;;;;;;5018442;28;20036;-87
2022/06/11 05:43:50;;;;;;;6.95;0.90;;;18.70;99.90;;;;;;5018306;28;20116;-87
2022/06/11 05:46:20;;;;;;;10.10;1.67;;;18.80;99.90;;;;;;5018022;28;20039;-86
2022/06/11 05:48:50;;;;;;;8.20;1.13;;;18.90;99.90;;;;;;5017975;28;20026;-85
2022/06/11 05:51:25;;;;;;;11.18;1.00;;;18.90;99.90;;;;;;5018015;28;20053;-86
2022/06/11 05:53:53;;;;;;;8.63;1.20;;;19.00;99.90;;;;;;5018164;28;20033;-87
2022/06/11 05:56:19;;;;;;;7.28;0.90;;;19.10;99.90;;;;;;5017750;28;20052;-86
2022/06/11 05:58:55;;;;;;;7.53;0.82;;;19.20;99.90;;;;;;5017857;28;20025;-85
2022/06/11 06:01:24;;;;;;;11.25;1.30;;;19.20;99.90;;;;;;5017763;28;20026;-86
2022/06/11 06:03:49;;;;;;;9.80;1.17;;;19.00;99.90;;;;;;5018033;28;20033;-85
2022/06/11 06:06:16;;;;;;;7.90;0.98;;;19.00;99.90;;;;;;5035023;28;20501;-85
2022/06/11 06:08:41;;;;;;;10.48;1.35;;;18.90;99.90;;;;;;5035534;28;20025;-86
2022/06/11 06:11:07;;;;;;;11.43;1.42;;;18.80;99.90;;;;;;5034968;28;20603;-86
2022/06/11 06:13:48;;;;;;;10.30;1.80;;;18.80;99.90;;;;;;5017727;28;20037;-87
2022/06/11 06:16:19;;;;;;;10.95;1.50;;;18.70;99.90;;;;;;5017844;28;20026;-88
2022/06/11 06:18:45;;;;;;;14.35;1.92;;;18.80;99.90;;;;;;5017354;28;20121;-86
2022/06/11 06:21:11;;;;;;;12.45;1.45;;;18.70;99.90;;;;;;5017327;28;20045;-87
2022/06/11 06:23:37;;;;;;;15.68;2.35;;;18.70;99.90;;;;;;5017820;28;20543;-86
2022/06/11 06:26:03;;;;;;;14.60;1.80;;;18.70;99.90;;;;;;5017440;28;20025;-87
2022/06/11 06:28:29;;;;;;;13.48;1.70;;;18.70;99.90;;;;;;5016479;28;20021;-87
2022/06/11 06:30:58;;;;;;;8.88;1.35;;;18.80;99.90;;;;;;5017164;28;20393;-86
2022/06/11 06:33:24;;;;;;;11.63;2.00;;;18.80;99.90;;;;;;5017148;28;20057;-86
2022/06/11 06:35:50;;;;;;;13.27;1.80;;;18.80;99.90;;;;;;5016973;28;20555;-86
2022/06/11 06:38:16;;;;;;;13.63;1.67;;;18.90;99.90;;;;;;5017445;28;20030;-86
2022/06/11 06:40:42;;;;;;;11.25;1.27;;;19.00;99.90;;;;;;5017250;28;20022;-87
2022/06/11 06:43:08;;;;;;;9.30;1.70;;;19.10;99.90;;;;;;5033436;28;20043;-86
2022/06/11 06:45:34;;;;;;;13.20;1.38;;;19.20;99.90;;;;;;5017362;28;20028;-87
2022/06/11 06:47:59;;;;;;;17.13;2.72;;;19.20;99.90;;;;;;5033635;28;20045;-87
2022/06/11 06:50:25;;;;;;;11.35;1.73;;;19.30;99.90;;;;;;5017077;28;20104;-86
2022/06/11 06:52:50;;;;;;;11.27;1.88;;;19.30;99.90;;;;;;5016787;28;20401;-86
2022/06/11 06:55:16;;;;;;;12.40;1.92;;;19.30;99.90;;;;;;5017035;28;20500;-86
2022/06/11 06:57:42;;;;;;;13.88;1.70;;;19.40;99.90;;;;;;5017066;28;20026;-87
2022/06/11 07:00:09;;;;;;;12.80;1.55;;;19.40;99.90;;;;;;5016944;28;20491;-87
2022/06/11 07:02:34;;;;;;;11.02;1.77;;;19.40;99.90;;;;;;5016659;28;20029;-87
2022/06/11 07:05:00;;;;;;;11.38;1.67;;;19.50;99.90;;;;;;5016718;28;20044;-87
2022/06/11 07:07:26;;;;;;;10.70;1.17;;;19.60;99.90;;;;;;5016865;28;20029;-87
2022/06/11 07:09:56;;;;;;;14.82;1.80;;;19.90;99.90;;;;;;5016614;28;20025;-87
2022/06/11 07:12:22;;;;;;;13.98;1.90;;;20.10;99.90;;;;;;5016621;28;20041;-86
2022/06/11 07:14:48;;;;;;;12.00;1.75;;;20.20;99.90;;;;;;5016950;28;20021;-85
2022/06/11 07:17:15;;;;;;;10.88;1.60;;;20.30;99.90;;;;;;5016444;28;20083;-86
2022/06/11 07:19:47;;;;;;;10.23;1.02;;;20.40;99.90;;;;;;5016587;28;20026;-87
2022/06/11 07:22:21;;;;;;;14.88;2.03;;;20.40;99.90;;;;;;5016537;28;20035;-87
2022/06/11 07:24:46;;;;;;;17.60;1.80;;;20.20;99.90;;;;;;5016666;28;20033;-86
2022/06/11 07:27:17;;;;;;;13.18;2.22;;;20.10;99.90;;;;;;5016385;28;20052;-87
2022/06/11 07:29:53;;;;;;;17.17;1.95;;;19.90;99.90;;;;;;5016425;28;20068;-86
2022/06/11 07:32:21;;;;;;;12.60;1.40;;;19.80;99.90;;;;;;5016247;28;20486;-86
2022/06/11 07:34:47;;;;;;;12.75;1.80;;;19.70;99.90;;;;;;5033460;28;20056;-86
2022/06/11 07:37:13;;;;;;;9.70;1.00;;;19.80;99.90;;;;;;5016477;28;20029;-86
2022/06/11 07:39:38;;;;;;;11.27;1.85;;;19.80;99.90;;;;;;5015790;28;20163;-86
2022/06/11 07:42:05;;;;;;;10.82;1.30;;;19.90;99.90;;;;;;5016146;28;20056;-85
2022/06/11 07:44:31;;;;;;;13.48;1.40;;;20.00;99.90;;;;;;5015835;28;20063;-86
2022/06/11 07:46:56;;;;;;;12.00;1.13;;;20.00;99.90;;;;;;5015919;28;20025;-85
2022/06/11 07:49:22;;;;;;;12.57;1.52;;;20.10;99.90;;;;;;5015988;28;20037;-85
2022/06/11 07:51:48;;;;;;;12.60;1.88;;;20.20;99.90;;;;;;5015853;28;20064;-86
2022/06/11 07:54:13;;;;;;;9.55;1.73;;;20.20;99.90;;;;;;5015990;28;20485;-86
2022/06/11 07:56:39;;;;;;;12.38;1.70;;;20.30;99.90;;;;;;5016147;28;20079;-85
2022/06/11 07:59:06;;;;;;;12.40;1.70;;;20.30;99.90;;;;;;5015891;28;20029;-86
2022/06/11 08:01:32;;;;;;;11.85;1.63;;;20.20;99.90;;;;;;5016355;28;20060;-85
2022/06/11 08:03:57;;;;;;;11.70;1.40;;;20.20;99.90;;;;;;5016236;28;20029;-86
2022/06/11 08:06:23;;;;;;;10.27;1.13;;;20.20;99.90;;;;;;5015853;28;20028;-86
2022/06/11 08:08:50;;;;;;;11.50;1.88;;;20.20;99.90;;;;;;5016003;28;20074;-85
2022/06/11 08:11:15;;;;;;;8.80;1.42;;;20.30;99.90;;;;;;5015894;28;20026;-86
2022/06/11 08:13:41;;;;;;;9.07;0.90;;;20.30;99.90;;;;;;5033430;28;20046;-87
2022/06/11 08:16:07;;;;;;;10.13;1.33;;;20.40;99.90;;;;;;5033612;28;20029;-87
2022/06/11 08:18:33;;;;;;;12.57;2.00;;;20.50;99.90;;;;;;5032530;28;20044;-87
2022/06/11 08:20:59;;;;;;;12.63;1.80;;;20.50;99.90;;;;;;5015866;28;20432;-86
2022/06/11 08:23:25;;;;;;;13.75;1.52;;;20.60;99.90;;;;;;5015857;28;20021;-87
2022/06/11 08:25:52;;;;;;;10.05;1.90;;;20.60;99.90;;;;;;5015668;28;20021;-86
2022/06/11 08:28:18;;;;;;;10.00;1.05;;;20.80;99.90;;;;;;5015785;28;20113;-86
2022/06/11 08:30:44;;;;;;;10.50;1.33;;;20.90;99.90;;;;;;5033201;28;20049;-87
2022/06/11 08:33:11;;;;;;;7.60;1.00;;;20.90;99.90;;;;;;5015805;28;20418;-88
2022/06/11 08:35:38;;;;;;;11.60;1.60;;;20.80;99.90;;;;;;5032078;28;20041;-88
2022/06/11 08:38:05;;;;;;;13.85;2.08;;;20.80;99.90;;;;;;5033448;28;20072;-86
2022/06/11 08:40:37;;;;;;;11.02;1.30;;;21.00;99.90;;;;;;5032120;28;20024;-87
2022/06/11 08:43:16;;;;;;;11.60;1.58;;;21.00;99.90;;;;;;5015434;28;20496;-87
2022/06/11 08:45:48;;;;;;;10.43;1.08;;;21.00;99.90;;;;;;5015635;28;20029;-86
2022/06/11 08:48:34;;;;;;;13.80;1.38;;;21.10;99.90;;;;;;5033071;28;20501;-88
2022/06/11 08:51:26;;;;;;;14.57;1.40;;;21.30;99.90;;;;;;4993127;28;20033;-87
2022/06/11 08:53:54;;;;;;;12.48;1.70;;;21.50;99.90;;;;;;5036705;28;20038;-87
2022/06/11 08:56:34;;;;;;;8.27;0.88;;;21.60;99.40;;;;;;5035475;28;20026;-86
2022/06/11 08:59:11;;;;;;;11.20;1.23;;;21.80;99.00;;;;;;5036553;28;20034;-86
2022/06/11 09:01:55;;;;;;;7.32;1.02;;;22.00;98.30;;;;;;5036554;28;20428;-85
2022/06/11 09:04:54;;;;;;;12.05;1.25;;;22.20;98.20;;;;;;5019089;28;20037;-86
2022/06/11 09:07:41;;;;;;;13.13;1.58;;;22.40;97.60;;;;;;5036279;28;20064;-86
2022/06/11 09:10:27;;;;;;;11.63;1.27;;;22.70;96.90;;;;;;5035368;28;20033;-88
2022/06/11 09:13:29;;;;;;;11.25;1.40;;;22.90;96.50;;;;;;5008402;28;20096;-86
2022/06/11 09:16:14;;;;;;;10.13;1.45;;;23.10;96.00;;;;;;5036432;28;20481;-86
2022/06/11 09:19:00;;;;;;;10.45;1.77;;;23.00;95.30;;;;;;5034928;28;20112;-85
2022/06/11 09:21:42;;;;;;;11.23;1.27;;;23.00;95.30;;;;;;5035124;28;20025;-86
2022/06/11 09:24:18;;;;;;;11.50;1.67;;;22.80;95.10;;;;;;5035140;28;20044;-86
2022/06/11 09:26:51;;;;;;;9.75;1.15;;;22.80;95.00;;;;;;5035104;28;20026;-86
2022/06/11 09:29:41;;;;;;;10.02;1.00;;;22.70;94.20;;;;;;5018034;28;20022;-86
2022/06/11 09:32:19;;;;;;;11.63;1.10;;;22.50;93.80;;;;;;5018427;28;20079;-86
2022/06/11 09:34:55;;;;;;;11.15;1.02;;;22.20;93.40;;;;;;5035545;28;20098;-86
2022/06/11 09:37:26;;;;;;;10.55;1.42;;;22.00;94.00;;;;;;5035431;28;20029;-86
2022/06/11 09:40:06;;;;;;;15.02;1.95;;;22.10;94.20;;;;;;5035959;28;20032;-87
2022/06/11 09:43:02;;;;;;;9.70;1.25;;;22.30;93.70;;;;;;5018629;28;20116;-87
2022/06/11 09:45:51;;;;;;;10.32;1.08;;;22.40;93.30;;;;;;5018459;28;20037;-87
2022/06/11 09:48:28;;;;;;;13.27;1.10;;;22.50;92.60;;;;;;5034970;28;20488;-87
2022/06/11 09:51:02;;;;;;;11.23;1.08;;;22.60;92.20;;;;;;5035525;28;20021;-87
2022/06/11 09:53:47;;;;;;;9.45;1.13;;;22.60;91.90;;;;;;5035803;28;20045;-87
2022/06/11 09:56:42;;;;;;;13.27;1.92;;;22.60;91.80;;;;;;5034306;28;20041;-87
2022/06/11 09:59:43;;;;;;;9.60;1.58;;;22.60;91.60;;;;;;5034354;28;20438;-86
2022/06/11 10:02:22;;;;;;;8.33;1.37;;;22.60;91.70;;;;;;5035117;28;20026;-88
2022/06/11 10:04:49;;;;;;;6.88;1.00;;;22.70;91.30;;;;;;5017965;28;20290;-87
2022/06/11 10:07:20;;;;;;;9.80;1.20;;;22.90;91.50;;;;;;5017602;28;20021;-86
2022/06/11 10:10:17;;;;;;;14.70;1.63;;;22.90;91.30;;;;;;5017829;28;20080;-87
2022/06/11 10:12:48;;;;;;;10.48;1.10;;;22.90;91.10;;;;;;5014471;28;20049;-87
2022/06/11 10:15:16;;;;;;;9.80;1.50;;;22.70;91.20;;;;;;5017775;28;20017;-86
2022/06/11 10:18:17;;;;;;;9.07;0.95;;;22.70;90.70;;;;;;5017672;28;20030;-87
2022/06/11 10:20:50;;;;;;;8.43;1.13;;;22.60;90.40;;;;;;5009646;28;20034;-87
2022/06/11 10:23:35;;;;;;;7.88;0.85;;;22.60;90.80;;;;;;5017677;28;20512;-87
2022/06/11 10:26:25;;;;;;;11.32;1.35;;;22.60;89.50;;;;;;5017929;28;20022;-87
2022/06/11 10:29:13;;;;;;;11.98;1.77;;;22.60;90.10;;;;;;5034093;28;20030;-87
2022/06/11 10:32:01;;;;;;;10.18;1.00;;;22.60;90.30;;;;;;5017053;28;20021;-86
2022/06/11 10:34:28;;;;;;;8.43;1.10;;;22.60;90.10;;;;;;5034560;28;20085;-87
2022/06/11 10:37:10;;;;;;;11.82;1.08;;;22.70;90.40;;;;;;5017329;28;20017;-86
2022/06/11 10:39:57;;;;;;;10.02;1.55;;;22.90;90.30;;;;;;5017273;28;20082;-88
2022/06/11 10:42:35;;;;;;;9.13;1.20;;;23.00;90.20;;;;;;5017040;28;20047;-86
2022/06/11 10:45:01;;;;;;;8.40;1.08;;;23.00;90.10;;;;;;5017391;28;20021;-86
2022/06/11 10:47:38;;;;;;;10.15;1.08;;;23.10;90.00;;;;;;5017278;28;20029;-86
2022/06/11 10:50:09;;;;;;;9.45;1.55;;;23.30;90.30;;;;;;5016882;28;20021;-85
2022/06/11 10:52:46;;;;;;;13.20;1.60;;;23.40;89.30;;;;;;5034409;28;20478;-86
2022/06/11 10:55:34;;;;;;;8.38;1.50;;;23.50;88.50;;;;;;5017115;28;20033;-87
2022/06/11 10:58:10;;;;;;;12.13;1.20;;;23.40;89.70;;;;;;5016970;28;20554;-86
2022/06/11 11:01:03;;;;;;;8.45;1.25;;;23.30;88.00;;;;;;5016844;28;20104;-88
2022/06/11 11:03:37;;;;;;;;;;;23.20;89.30;;;;;;5017446;28;20109;-87
2022/06/11 11:06:08;;;;;;;9.45;1.05;;;23.20;89.80;;;;;;5016733;28;19927;-87
2022/06/11 11:08:36;;;;;;;9.48;0.95;;;23.40;89.70;;;;;;5016634;28;20029;-86
2022/06/11 11:11:06;;;;;;;11.65;1.40;;;23.40;89.10;;;;;;5016602;28;20021;-86
2022/06/11 11:13:40;;;;;;;13.15;1.80;;;23.40;88.20;;;;;;5016510;28;20401;-86
2022/06/11 11:16:11;;;;;;;13.27;1.52;;;23.40;88.50;;;;;;5016414;28;20028;-87
2022/06/11 11:19:13;;;;;;;11.98;1.25;;;23.30;88.60;;;;;;5032880;28;20508;-87
2022/06/11 11:22:08;;;;;;;10.75;1.38;;;23.30;89.20;;;;;;5034111;28;20028;-87
2022/06/11 11:24:38;;;;;;;11.38;0.95;;;23.30;89.30;;;;;;5016133;28;20045;-86
2022/06/11 11:27:25;;;;;;;7.65;1.05;;;23.30;89.40;;;;;;5033939;28;20026;-87
2022/06/11 11:29:53;;;;;;;17.20;2.22;;;23.40;88.60;;;;;;5034006;28;20469;-87
2022/06/11 11:32:33;;;;;;;10.30;1.30;;;23.60;88.10;;;;;;5033718;28;20025;-88
2022/06/11 11:35:22;;;;;;;9.68;1.33;;;23.80;87.90;;;;;;5032610;28;20049;-87
2022/06/11 11:38:11;;;;;;;8.82;0.80;;;24.00;87.10;;;;;;5033914;28;20021;-86
2022/06/11 11:40:50;;;;;;;12.75;2.38;;;24.40;86.00;;;;;;5032496;28;20029;-87
2022/06/11 11:43:17;;;;;;;9.93;1.35;;;24.80;85.90;;;;;;5034186;28;20427;-87
2022/06/11 11:45:47;;;;;;;11.85;1.40;;;24.80;85.10;;;;;;5016241;28;20112;-87
2022/06/11 11:48:30;;;;;;;8.93;0.90;;;24.90;85.00;;;;;;5032796;28;20021;-86
2022/06/11 11:51:07;;;;;;;10.55;1.33;;;25.00;84.90;;;;;;5032716;28;20049;-87
2022/06/11 11:53:44;;;;;;;13.45;1.73;;;25.10;84.10;;;;;;5033659;28;20041;-86
2022/06/11 11:56:28;;;;;;;10.50;1.27;;;25.10;82.20;;;;;;5033484;28;20018;-86
2022/06/11 11:59:13;;;;;;;8.75;1.30;;;25.00;83.80;;;;;;5032609;28;20046;-86
2022/06/11 12:01:38;;;;;;;7.78;1.40;;;24.90;83.70;;;;;;5032464;28;20474;-87
2022/06/11 12:04:32;;;;;;;10.45;1.55;;;24.80;84.30;;;;;;5032540;28;20026;-86
2022/06/11 12:07:02;;;;;;;11.65;1.23;;;24.90;84.00;;;;;;5033398;28;20053;-87
2022/06/11 12:09:38;;;;;;;9.38;0.88;;;24.90;83.70;;;;;;5015763;28;20021;-86
2022/06/11 12:12:14;;;;;;;10.70;1.55;;;25.10;83.00;;;;;;5033385;28;20080;-87
2022/06/11 12:14:47;;;;;;;12.45;1.23;;;25.00;82.30;;;;;;5015977;28;20030;-85
2022/06/11 12:17:39;;;;;;;10.68;1.65;;;24.90;83.00;;;;;;5016040;28;20116;-86
2022/06/11 12:20:22;;;;;;;10.40;1.35;;;24.90;83.70;;;;;;5016105;28;20418;-86
2022/06/11 12:22:52;;;;;;;10.27;1.40;;;24.90;83.50;;;;;;5032242;28;20056;-86
2022/06/11 12:25:28;;;;;;;11.30;1.45;;;25.20;82.60;;;;;;5033453;28;20543;-87
2022/06/11 12:27:53;;;;;;;12.95;1.40;;;25.40;81.40;;;;;;5035411;28;20021;-86
2022/06/11 12:30:24;;;;;;;9.50;0.93;;;25.40;80.60;;;;;;5019597;28;20385;-87
2022/06/11 12:32:50;;;;;;;7.00;0.82;;;25.70;81.00;;;;;;5019501;28;20120;-86
2022/06/11 12:35:23;;;;;;;9.40;1.25;;;25.80;80.80;;;;;;5035737;28;20077;-87
2022/06/11 12:38:10;;;;;;;6.82;1.38;;;26.00;80.20;;;;;;5019710;28;20033;-86
2022/06/11 12:40:56;;;;;;;7.93;1.10;;;25.90;80.40;;;;;;5019678;28;20067;-86
2022/06/11 12:44:20;;;;;;;11.07;1.65;;;26.00;80.40;;;;;;4989329;28;20034;-85
2022/06/11 12:47:03;;;;;;;8.13;1.02;;;26.20;78.70;;;;;;5004659;28;20033;-85
2022/06/11 12:49:44;;;;;;;8.98;0.90;;;26.10;78.30;;;;;;5035754;28;20056;-86
2022/06/11 12:52:46;;;;;;;11.65;0.88;;;26.20;77.90;;;;;;5018960;28;20493;-86
2022/06/11 12:55:46;;;;;;;9.77;1.02;;;26.30;77.60;;;;;;5036399;28;20108;-86
2022/06/11 12:58:21;;;;;;;7.82;1.10;;;26.20;77.00;;;;;;5035374;28;20021;-86
2022/06/11 13:01:04;;;;;;;8.57;1.25;;;25.90;76.30;;;;;;5036621;28;20084;-86
2022/06/11 13:03:55;;;;;;;6.75;0.85;;;25.60;75.90;;;;;;5036562;28;20029;-86
2022/06/11 13:06:39;;;;;;;10.25;0.88;;;25.60;77.20;;;;;;5018807;28;20032;-86
2022/06/11 13:09:15;;;;;;;5.97;0.85;;;25.60;76.40;;;;;;5035619;28;20453;-86
2022/06/11 13:12:03;;;;;;;8.40;1.00;;;25.60;76.00;;;;;;5035205;28;20025;-87
2022/06/11 13:14:47;;;;;;;8.27;1.35;;;25.90;75.80;;;;;;5035259;28;20437;-87